Lucan, Canada
Current Conditions -  °F | °C
As of 6:00 AM on Monday 20 Oct 2014 (Local Time) from CYXU Reporting Station
Overcast Overcast  
Wind Chill: 41°   Ceiling: 8700
Heat Index: 46°   Visibility: 15mi
Dew Point: 39°   Wind: 10mph
Humidity: 76%   Direction: 210°SSW
Pressure: 29.89"   Gusts: NA
Location:  43.19°N, 81.4°W
Report Text: CYXU 201000Z 21009KT 15SM OVC087 08/04 A2989 RMK AC8 SLP126
Loading
Personal Weather Stations






























Interactive Weather Map
Tropical Storm Tracking
New forecast layout! Learn more

10-Day Weather Forecast

Advertisements
Track Severe Weather on mobile